メインページ
METAR-TAF:

METAR-TAF

空港 :

カムループス, ブリティッシュコロンビア州, カナダ

緯度: 50-42N, 経度: 120-27W, 海抜: 345m

現時点の気象観測

当レポートは4時間57分前の05:00(UTC)に作成
西/南西の風 7kt
気温 25°C
湿度 34%
気圧 1012 hPa
視程: 64.4km
高度12000ftの千切れ雲あり
高度23000ftの千切れ雲あり

METAR: CYKA 030500Z 24007KT 40SM BKN120 BKN230 25/08 A2989 RMK AC5CI2 LAST STFD OBS/NXT 031300Z SLP118 DENSITY ALT 2700FT

時間: 02:57 (09:57 UTC)

予報

当レポートは9時間19分前の00:38(UTC)に作成
予報は03日の 01時(UTC)から 03日の 05時(UTC)まで有効
南西の風 12kt、最大22ktの突風を伴う
視程: 10km
高度15000ftの雲はほとんどない
高度25000ftの千切れ雲あり

TAF: CYKA 030038Z 0301/0305 23012G22KT P6SM FEW150 BKN250 RMK NXT FCST WILL BE ISSUED AT 031445Z

4,000以上の空港の気象観測と天気予報(METAR報とTAF報)

利用可能な観測所は地図上に黄色い丸と赤い丸で示す。

丸の上にカーソルを重ねると観測所名を参照できる。

次にクリックすると気象観測と天気予報を参照できる。

マップの切り替え:黒色「×」印の緑ボタンをクリックして拡大、「-」印の緑ボタンをクリックして縮小、緑色の三角印をクリックして隣りの地図に切り替え


METAR-TAF: